createdAt,value
2022-12-18T00:00:19.565Z,100546.05
2022-12-18T00:03:08.474Z,100547.28
2022-12-18T00:05:37.896Z,100555.95
2022-12-18T00:08:09.593Z,100562.20
2022-12-18T00:10:38.813Z,100564.81
2022-12-18T00:13:09.955Z,100568.10
2022-12-18T00:15:40.960Z,100570.69
2022-12-18T00:18:09.765Z,100573.48
2022-12-18T00:20:40.103Z,100571.23
2022-12-18T00:23:08.331Z,100578.70
2022-12-18T00:25:37.896Z,100583.23
2022-12-18T00:28:06.712Z,100589.34
2022-12-18T00:30:34.913Z,100591.05
2022-12-18T00:33:03.015Z,100592.45
2022-12-18T00:35:33.177Z,100595.20
2022-12-18T00:38:01.417Z,100596.06
2022-12-18T00:40:29.517Z,100597.63
2022-12-18T00:42:57.719Z,100601.98
2022-12-18T00:45:28.466Z,100609.10
2022-12-18T00:47:57.902Z,100609.98
2022-12-18T00:50:27.165Z,100608.75
2022-12-18T00:52:55.356Z,100613.96
2022-12-18T00:55:24.019Z,100618.80
2022-12-18T00:57:53.615Z,100620.20
2022-12-18T01:00:22.271Z,100622.97
2022-12-18T01:02:50.737Z,100622.80
2022-12-18T01:05:19.448Z,100625.05
2022-12-18T01:07:47.654Z,100626.78
2022-12-18T01:10:15.916Z,100635.47
2022-12-18T01:12:44.168Z,100644.67
2022-12-18T01:15:14.395Z,100644.50
2022-12-18T01:17:43.367Z,100646.42
2022-12-18T01:20:13.488Z,100650.58
2022-12-18T01:22:41.782Z,100650.92
2022-12-18T01:25:10.463Z,100653.70
2022-12-18T01:27:38.713Z,100653.20
2022-12-18T01:30:07.581Z,100656.33
2022-12-18T01:32:35.760Z,100660.48
2022-12-18T01:35:04.992Z,100659.79
2022-12-18T01:37:33.658Z,100658.90
2022-12-18T01:40:01.912Z,100664.97
2022-12-18T01:42:30.133Z,100669.14
2022-12-18T01:45:07.715Z,100673.16
2022-12-18T01:47:47.796Z,100674.73
2022-12-18T01:50:45.395Z,100677.70
2022-12-18T01:53:23.791Z,100679.41
2022-12-18T01:55:55.009Z,100683.06
2022-12-18T01:59:14.891Z,100687.41
2022-12-18T02:01:43.164Z,100695.23
2022-12-18T02:04:23.768Z,100696.28
2022-12-18T02:07:07.609Z,100700.80
2022-12-18T02:09:44.845Z,100702.84
2022-12-18T02:12:25.280Z,100704.92
2022-12-18T02:15:01.708Z,100710.11
2022-12-18T02:17:36.147Z,100706.83
2022-12-18T02:20:21.456Z,100706.50
2022-12-18T02:23:08.922Z,100712.22
2022-12-18T02:26:05.940Z,100718.30
2022-12-18T02:28:43.766Z,100726.11
2022-12-18T02:31:17.536Z,100730.79
2022-12-18T02:33:47.340Z,100735.13
2022-12-18T02:36:18.387Z,100738.04
2022-12-18T02:38:48.131Z,100736.99
2022-12-18T02:41:18.058Z,100736.64
2022-12-18T02:43:57.207Z,100739.42
2022-12-18T02:46:47.465Z,100743.05
2022-12-18T02:49:35.111Z,100746.86
2022-12-18T02:52:29.931Z,100746.84
2022-12-18T02:55:23.065Z,100750.64
2022-12-18T02:58:03.848Z,100756.19
2022-12-18T03:01:04.834Z,100757.95
2022-12-18T03:03:53.069Z,100762.98
2022-12-18T03:06:28.304Z,100764.87
2022-12-18T03:09:08.391Z,100768.86
2022-12-18T03:12:01.555Z,100775.95
2022-12-18T03:14:33.810Z,100774.06
2022-12-18T03:17:05.332Z,100778.08
2022-12-18T03:19:35.940Z,100780.18
2022-12-18T03:22:08.237Z,100784.88
2022-12-18T03:24:47.445Z,100785.42
2022-12-18T03:27:20.737Z,100784.88
2022-12-18T03:30:00.377Z,100786.63
2022-12-18T03:32:34.320Z,100792.70
2022-12-18T03:35:06.506Z,100793.73
2022-12-18T03:37:37.557Z,100797.23
2022-12-18T03:40:07.258Z,100800.02
2022-12-18T03:42:35.753Z,100800.39
2022-12-18T03:45:21.901Z,100797.43
2022-12-18T03:48:09.772Z,100800.72
2022-12-18T03:51:06.545Z,100809.56
2022-12-18T03:54:00.634Z,100817.40
2022-12-18T03:56:40.127Z,100818.98
2022-12-18T03:59:12.596Z,100820.22
2022-12-18T04:01:47.079Z,100816.55
2022-12-18T04:04:19.041Z,100820.00
2022-12-18T04:06:51.160Z,100826.40
2022-12-18T04:09:21.908Z,100828.32
2022-12-18T04:11:50.310Z,100835.43
2022-12-18T04:14:18.754Z,100838.76
2022-12-18T04:16:50.075Z,100838.24
2022-12-18T04:19:19.568Z,100836.54
2022-12-18T04:21:49.255Z,100837.22
2022-12-18T04:24:17.418Z,100838.79
2022-12-18T04:26:53.475Z,100842.42
2022-12-18T04:29:29.328Z,100849.52
2022-12-18T04:31:58.322Z,100852.80
2022-12-18T04:34:27.555Z,100855.42
2022-12-18T04:36:56.524Z,100857.69
2022-12-18T04:39:25.572Z,100863.41
2022-12-18T04:41:56.138Z,100866.86
2022-12-18T04:44:24.715Z,100868.24
2022-12-18T04:46:52.875Z,100871.69
2022-12-18T04:49:21.113Z,100873.02
2022-12-18T04:51:49.311Z,100879.95
2022-12-18T04:54:17.524Z,100881.86
2022-12-18T04:56:45.792Z,100883.96
2022-12-18T04:59:15.644Z,100887.25
2022-12-18T05:01:44.028Z,100888.45
2022-12-18T05:04:12.966Z,100890.89
2022-12-18T05:06:41.182Z,100898.34
2022-12-18T05:09:09.333Z,100899.02
2022-12-18T05:11:38.177Z,100903.52
2022-12-18T05:14:06.291Z,100909.95
2022-12-18T05:16:35.192Z,100911.54
2022-12-18T05:19:03.379Z,100913.29
2022-12-18T05:21:32.028Z,100909.46
2022-12-18T05:24:00.389Z,100911.36
2022-12-18T05:26:28.660Z,100913.27
2022-12-18T05:28:56.740Z,100913.40
2022-12-18T05:31:24.834Z,100920.66
2022-12-18T05:33:53.036Z,100928.45
2022-12-18T05:36:21.304Z,100926.71
2022-12-18T05:38:49.495Z,100927.09
2022-12-18T05:41:17.657Z,100921.05
2022-12-18T05:43:45.834Z,100924.54
2022-12-18T05:46:17.490Z,100923.31
2022-12-18T05:48:46.537Z,100922.97
2022-12-18T05:51:18.031Z,100924.18
2022-12-18T05:53:47.032Z,100925.05
2022-12-18T05:56:18.749Z,100927.69
2022-12-18T05:58:48.219Z,100927.71
2022-12-18T06:01:23.660Z,100929.11
2022-12-18T06:03:52.185Z,100937.60
2022-12-18T06:06:23.656Z,100942.79
2022-12-18T06:08:52.339Z,100943.30
2022-12-18T06:11:24.031Z,100948.64
2022-12-18T06:13:59.075Z,100947.23
2022-12-18T06:16:32.093Z,100953.50
2022-12-18T06:19:02.121Z,100956.67
2022-12-18T06:21:31.500Z,100962.07
2022-12-18T06:24:01.457Z,100964.48
2022-12-18T06:26:29.768Z,100968.48
2022-12-18T06:28:58.099Z,100972.80
2022-12-18T06:31:27.246Z,100972.95
2022-12-18T06:33:55.491Z,100977.48
2022-12-18T06:36:23.999Z,100978.55
2022-12-18T06:38:52.116Z,100986.06
2022-12-18T06:41:22.140Z,100987.50
2022-12-18T06:43:50.800Z,100994.13
2022-12-18T06:46:19.603Z,100995.67
2022-12-18T06:48:50.354Z,100998.81
2022-12-18T06:51:21.001Z,100998.31
2022-12-18T06:53:49.685Z,100999.36
2022-12-18T06:56:18.174Z,101005.29
2022-12-18T06:58:46.543Z,101010.02
2022-12-18T07:01:14.996Z,101013.16
2022-12-18T07:03:44.961Z,101019.61
2022-12-18T07:06:21.045Z,101024.69
2022-12-18T07:08:50.705Z,101028.52
2022-12-18T07:11:19.239Z,101030.42
2022-12-18T07:13:47.508Z,101032.51
2022-12-18T07:16:24.827Z,101034.77
2022-12-18T07:18:57.148Z,101045.59
2022-12-18T07:21:25.839Z,101046.20
2022-12-18T07:23:54.420Z,101053.90
2022-12-18T07:26:23.100Z,101053.77
2022-12-18T07:28:51.831Z,101052.23
2022-12-18T07:31:22.817Z,101058.70
2022-12-18T07:33:52.381Z,101062.23
2022-12-18T07:36:24.356Z,101066.11
2022-12-18T07:38:53.983Z,101070.20
2022-12-18T07:41:23.328Z,101075.35
2022-12-18T07:43:51.665Z,101078.03
2022-12-18T07:46:20.821Z,101078.45
2022-12-18T07:48:50.219Z,101082.16
2022-12-18T07:51:20.282Z,101080.98
2022-12-18T07:53:51.805Z,101082.92
2022-12-18T07:56:27.626Z,101087.48
2022-12-18T07:58:57.338Z,101089.80
2022-12-18T08:01:26.014Z,101094.86
2022-12-18T08:03:54.448Z,101094.09
2022-12-18T08:06:24.153Z,101093.46
2022-12-18T08:08:55.123Z,101098.77
2022-12-18T08:11:25.374Z,101096.39
2022-12-18T08:13:54.339Z,101095.92
2022-12-18T08:16:23.721Z,101099.83
2022-12-18T08:18:53.813Z,101098.98
2022-12-18T08:21:28.721Z,101105.44
2022-12-18T08:24:00.526Z,101101.61
2022-12-18T08:26:31.881Z,101103.02
2022-12-18T08:29:01.343Z,101104.98
2022-12-18T08:31:31.942Z,101107.12
2022-12-18T08:34:00.236Z,101113.61
2022-12-18T08:36:28.633Z,101121.12
2022-12-18T08:38:58.347Z,101122.88
2022-12-18T08:41:27.845Z,101123.59
2022-12-18T08:44:14.654Z,101125.01
2022-12-18T08:46:45.724Z,101125.36
2022-12-18T08:49:14.100Z,101127.48
2022-12-18T08:51:45.513Z,101124.20
2022-12-18T08:54:14.910Z,101123.19
2022-12-18T08:56:43.145Z,101127.05
2022-12-18T08:59:18.795Z,101128.29
2022-12-18T09:01:49.314Z,101127.27
2022-12-18T09:04:17.863Z,101134.79
2022-12-18T09:06:45.964Z,101137.58
2022-12-18T09:09:14.213Z,101138.48
2022-12-18T09:11:42.733Z,101137.42
2022-12-18T09:14:11.345Z,101140.92
2022-12-18T09:16:40.738Z,101142.51
2022-12-18T09:19:11.037Z,101141.46
2022-12-18T09:21:43.387Z,101141.45
2022-12-18T09:24:14.962Z,101140.58
2022-12-18T09:26:47.319Z,101143.36
2022-12-18T09:29:18.934Z,101142.11
2022-12-18T09:31:48.332Z,101137.20
2022-12-18T09:34:17.953Z,101135.61
2022-12-18T09:36:46.075Z,101139.41
2022-12-18T09:39:16.044Z,101140.95
2022-12-18T09:41:54.683Z,101143.19
2022-12-18T09:44:44.950Z,101136.34
2022-12-18T09:47:29.920Z,101136.32
2022-12-18T09:50:02.595Z,101136.30
2022-12-18T09:52:36.547Z,101135.35
2022-12-18T09:55:20.971Z,101135.67
2022-12-18T09:57:56.174Z,101138.64
2022-12-18T10:00:26.288Z,101137.77
2022-12-18T10:03:02.519Z,101143.73
2022-12-18T10:05:43.179Z,101147.09
2022-12-18T10:08:24.120Z,101141.98
2022-12-18T10:10:58.278Z,101148.14
2022-12-18T10:13:33.520Z,101147.20
2022-12-18T10:16:20.934Z,101143.54
2022-12-18T10:19:08.364Z,101144.25
2022-12-18T10:21:59.850Z,101136.94
2022-12-18T10:24:41.739Z,101142.77
2022-12-18T10:27:23.667Z,101142.86
2022-12-18T10:29:51.961Z,101144.52
2022-12-18T10:32:26.622Z,101144.89
2022-12-18T10:35:00.809Z,101142.95
2022-12-18T10:37:33.522Z,101145.94
2022-12-18T10:40:22.028Z,101144.93
2022-12-18T10:43:07.128Z,101150.70
2022-12-18T10:45:36.232Z,101151.75
2022-12-18T10:48:04.968Z,101151.22
2022-12-18T10:51:09.143Z,101149.29
2022-12-18T10:53:31.071Z,101149.27
2022-12-18T10:56:00.981Z,101149.98
2022-12-18T10:58:35.763Z,101143.87
2022-12-18T11:01:07.200Z,101139.34
2022-12-18T11:03:47.903Z,101134.98
2022-12-18T11:06:23.962Z,101133.41
2022-12-18T11:09:12.224Z,101133.41
2022-12-18T11:11:50.329Z,101132.90
2022-12-18T11:14:27.185Z,101132.90
2022-12-18T11:17:24.508Z,101128.88
2022-12-18T11:19:53.085Z,101126.09
2022-12-18T11:22:27.526Z,101135.17
2022-12-18T11:28:25.968Z,101132.55
2022-12-18T11:31:33.053Z,101129.91
2022-12-18T11:37:04.266Z,101128.03
2022-12-18T11:39:42.355Z,101125.67
2022-12-18T11:42:37.858Z,101121.54
2022-12-18T11:45:12.184Z,101111.23
2022-12-18T11:48:04.779Z,101117.70
2022-12-18T11:50:47.432Z,101121.48
2022-12-18T11:53:16.053Z,101124.59
2022-12-18T11:55:51.661Z,101127.23
2022-12-18T11:58:49.057Z,101131.35
2022-12-18T12:01:43.392Z,101135.84
2022-12-18T12:05:00.838Z,101145.93
2022-12-18T12:08:04.445Z,101146.96
2022-12-18T12:10:54.214Z,101148.80
2022-12-18T12:13:25.309Z,101146.59
2022-12-18T12:16:10.715Z,101138.95
2022-12-18T12:18:51.521Z,101144.20
2022-12-18T12:21:41.708Z,101135.64
2022-12-18T12:24:19.044Z,101136.48
2022-12-18T12:26:56.609Z,101141.05
2022-12-18T12:29:52.333Z,101146.45
2022-12-18T12:32:35.525Z,101146.63
2022-12-18T12:35:11.823Z,101147.86
2022-12-18T12:38:08.357Z,101148.75
2022-12-18T12:40:58.900Z,101154.70
2022-12-18T12:43:48.027Z,101160.29
2022-12-18T12:46:23.050Z,101159.94
2022-12-18T12:49:03.836Z,101162.91
2022-12-18T12:51:38.322Z,101167.13
2022-12-18T12:54:18.902Z,101173.77
2022-12-18T12:57:13.843Z,101179.17
2022-12-18T13:00:11.080Z,101180.91
2022-12-18T13:03:04.761Z,101185.96
2022-12-18T13:05:43.050Z,101191.37
2022-12-18T13:08:26.850Z,101189.26
2022-12-18T13:11:18.321Z,101195.34
2022-12-18T13:13:56.475Z,101200.91
2022-12-18T13:16:28.581Z,101207.67
2022-12-18T13:19:00.036Z,101211.52
2022-12-18T13:21:34.831Z,101212.55
2022-12-18T13:24:24.673Z,101218.98
2022-12-18T13:26:53.596Z,101219.30
2022-12-18T13:29:47.433Z,101223.64
2022-12-18T13:32:27.582Z,101229.87
2022-12-18T13:35:18.092Z,101229.29
2022-12-18T13:37:54.487Z,101235.52
2022-12-18T13:40:40.885Z,101243.51
2022-12-18T13:43:47.002Z,101250.26
2022-12-18T13:46:20.541Z,101253.34
2022-12-18T13:49:00.960Z,101254.01
2022-12-18T13:51:33.089Z,101252.59
2022-12-18T13:54:37.732Z,101246.11
2022-12-18T13:57:26.297Z,101249.89
2022-12-18T14:00:22.371Z,101250.32
2022-12-18T14:02:52.340Z,101250.77
2022-12-18T14:05:26.177Z,101251.74
2022-12-18T14:07:55.996Z,101255.72
2022-12-18T14:10:45.529Z,101260.89
2022-12-18T14:13:29.361Z,101262.06
2022-12-18T14:16:01.810Z,101264.65
2022-12-18T14:18:56.921Z,101268.13
2022-12-18T14:21:33.785Z,101270.39
2022-12-18T14:24:18.284Z,101276.45
2022-12-18T14:26:50.889Z,101275.04
2022-12-18T14:29:28.565Z,101275.33
2022-12-18T14:32:10.564Z,101278.91
2022-12-18T14:34:45.109Z,101285.45
2022-12-18T14:37:16.814Z,101290.73
2022-12-18T14:39:55.443Z,101291.83
2022-12-18T14:42:24.358Z,101294.48
2022-12-18T14:45:13.353Z,101293.18
2022-12-18T14:47:45.132Z,101291.52
2022-12-18T14:50:17.664Z,101295.98
2022-12-18T14:52:46.070Z,101292.13
2022-12-18T14:55:22.611Z,101297.31
2022-12-18T14:57:53.837Z,101293.15
2022-12-18T15:00:24.761Z,101295.39
2022-12-18T15:02:58.971Z,101292.23
2022-12-18T15:05:33.140Z,101288.63
2022-12-18T15:08:03.752Z,101289.80
2022-12-18T15:10:34.255Z,101291.36
2022-12-18T15:13:04.125Z,101292.63
2022-12-18T15:15:53.896Z,101294.05
2022-12-18T15:18:31.082Z,101297.22
2022-12-18T15:21:08.285Z,101298.38
2022-12-18T15:23:47.026Z,101299.17
2022-12-18T15:26:19.611Z,101302.95
2022-12-18T15:28:58.592Z,101303.85
2022-12-18T15:31:37.545Z,101306.33
2022-12-18T15:34:08.752Z,101308.84
2022-12-18T15:36:38.073Z,101309.42
2022-12-18T15:39:07.063Z,101309.98
2022-12-18T15:41:37.706Z,101318.97
2022-12-18T15:44:24.381Z,101316.76
2022-12-18T15:46:52.620Z,101320.02
2022-12-18T15:49:20.979Z,101325.23
2022-12-18T15:51:59.567Z,101335.48
2022-12-18T15:54:46.574Z,101335.84
2022-12-18T15:57:24.372Z,101342.59
2022-12-18T16:00:13.910Z,101349.62
2022-12-18T16:02:42.186Z,101350.58
2022-12-18T16:05:18.201Z,101355.44
2022-12-18T16:07:47.025Z,101356.31
2022-12-18T16:10:17.126Z,101359.31
2022-12-18T16:12:49.950Z,101361.41
2022-12-18T16:15:24.256Z,101357.45
2022-12-18T16:17:55.567Z,101353.91
2022-12-18T16:20:40.286Z,101354.64
2022-12-18T16:23:09.043Z,101355.73
2022-12-18T16:25:38.396Z,101349.02
2022-12-18T16:28:11.547Z,101347.52
2022-12-18T16:30:41.576Z,101356.54
2022-12-18T16:33:12.495Z,101359.30
2022-12-18T16:35:41.054Z,101370.70
2022-12-18T16:38:09.418Z,101371.34
2022-12-18T16:40:58.939Z,101378.40
2022-12-18T16:43:28.348Z,101384.02
2022-12-18T16:46:00.057Z,101386.98
2022-12-18T16:48:32.873Z,101388.56
2022-12-18T16:51:04.429Z,101391.45
2022-12-18T16:53:35.809Z,101392.56
2022-12-18T16:56:05.060Z,101384.19
2022-12-18T16:58:35.006Z,101382.39
2022-12-18T17:01:10.134Z,101384.39
2022-12-18T17:03:38.817Z,101390.14
2022-12-18T17:06:07.794Z,101392.70
2022-12-18T17:08:36.044Z,101396.86
2022-12-18T17:11:07.976Z,101400.48
2022-12-18T17:13:36.224Z,101401.35
2022-12-18T17:16:06.990Z,101389.89
2022-12-18T17:18:36.257Z,101382.23
2022-12-18T17:21:07.821Z,101380.17
2022-12-18T17:23:37.358Z,101382.40
2022-12-18T17:26:08.479Z,101383.84
2022-12-18T17:28:39.896Z,101384.47
2022-12-18T17:31:14.142Z,101386.47
2022-12-18T17:33:43.017Z,101391.63
2022-12-18T17:36:12.942Z,101397.66
2022-12-18T17:38:41.604Z,101401.27
2022-12-18T17:41:11.990Z,101402.27
2022-12-18T17:43:45.882Z,101406.56
2022-12-18T17:46:15.446Z,101413.10
2022-12-18T17:48:43.805Z,101411.83
2022-12-18T17:51:12.775Z,101409.83
2022-12-18T17:53:42.348Z,101406.31
2022-12-18T17:56:16.869Z,101410.59
2022-12-18T17:58:45.500Z,101405.10
2022-12-18T18:01:23.872Z,101396.31
2022-12-18T18:03:54.272Z,101385.94
2022-12-18T18:06:23.591Z,101378.58
2022-12-18T18:08:52.165Z,101374.28
2022-12-18T18:11:41.828Z,101366.11
2022-12-18T18:14:17.075Z,101365.42
2022-12-18T18:16:50.614Z,101358.00
2022-12-18T18:19:24.196Z,101355.89
2022-12-18T18:21:54.567Z,101356.78
2022-12-18T18:24:23.726Z,101359.55
2022-12-18T18:26:52.668Z,101355.27
2022-12-18T18:29:26.893Z,101353.77
2022-12-18T18:31:57.046Z,101359.32
2022-12-18T18:34:27.932Z,101361.83
2022-12-18T18:36:56.286Z,101362.84
2022-12-18T18:39:25.720Z,101371.85
2022-12-18T18:41:54.182Z,101378.94
2022-12-18T18:44:26.025Z,101383.52
2022-12-18T18:46:56.533Z,101379.43
2022-12-18T18:49:28.114Z,101376.99
2022-12-18T18:51:58.108Z,101381.02
2022-12-18T18:54:26.464Z,101387.73
2022-12-18T18:59:44.061Z,101395.05
2022-12-18T19:02:14.603Z,101399.14
2022-12-18T19:04:47.863Z,101398.69
2022-12-18T19:07:24.063Z,101392.30
2022-12-18T19:10:05.145Z,101389.48
2022-12-18T19:12:53.802Z,101401.45
2022-12-18T19:15:23.312Z,101411.94
2022-12-18T19:17:52.697Z,101423.13
2022-12-18T19:20:21.566Z,101423.48
2022-12-18T19:22:54.898Z,101421.61
2022-12-18T19:25:38.431Z,101410.48
2022-12-18T19:28:21.668Z,101414.00
2022-12-18T19:30:58.892Z,101415.17
2022-12-18T19:33:48.180Z,101413.84
2022-12-18T19:36:25.396Z,101416.23
2022-12-18T19:38:56.941Z,101416.64
2022-12-18T19:41:26.201Z,101420.62
2022-12-18T19:43:57.510Z,101420.13
2022-12-18T19:46:25.847Z,101425.69
2022-12-18T19:48:54.056Z,101430.66
2022-12-18T19:51:28.457Z,101430.34
2022-12-18T19:53:59.801Z,101431.30
2022-12-18T19:56:32.156Z,101435.27
2022-12-18T19:59:01.568Z,101431.85
2022-12-18T20:01:30.884Z,101428.77
2022-12-18T20:04:00.332Z,101431.17
2022-12-18T20:06:33.959Z,101432.29
2022-12-18T20:09:05.709Z,101441.81
2022-12-18T20:11:40.163Z,101448.17
2022-12-18T20:14:12.510Z,101455.13
2022-12-18T20:16:41.575Z,101459.46
2022-12-18T20:19:14.857Z,101452.95
2022-12-18T20:21:44.852Z,101456.05
2022-12-18T20:24:13.311Z,101456.85
2022-12-18T20:26:41.696Z,101463.05
2022-12-18T20:29:10.188Z,101466.50
2022-12-18T20:31:38.660Z,101460.34
2022-12-18T20:34:07.232Z,101464.33
2022-12-18T20:36:37.651Z,101466.42
2022-12-18T20:39:07.638Z,101464.16
2022-12-18T20:41:39.239Z,101464.96
2022-12-18T20:44:21.737Z,101465.02
2022-12-18T20:46:54.116Z,101469.06
2022-12-18T20:49:24.016Z,101472.43
2022-12-18T20:51:54.339Z,101468.02
2022-12-18T20:54:24.291Z,101479.60
2022-12-18T20:56:52.849Z,101482.41
2022-12-18T20:59:21.264Z,101478.54
2022-12-18T21:01:50.074Z,101481.84
2022-12-18T21:04:19.370Z,101478.34
2022-12-18T21:06:53.375Z,101467.83
2022-12-18T21:09:26.117Z,101463.48
2022-12-18T21:12:14.047Z,101462.56
2022-12-18T21:14:43.424Z,101456.08
2022-12-18T21:17:12.055Z,101452.19
2022-12-18T21:19:40.371Z,101447.65
2022-12-18T21:22:10.184Z,101434.84
2022-12-18T21:24:38.363Z,101427.09
2022-12-18T21:27:06.544Z,101430.97
2022-12-18T21:29:36.368Z,101428.04
2022-12-18T21:32:05.406Z,101425.23
2022-12-18T21:34:34.246Z,101428.98
2022-12-18T21:37:03.787Z,101421.64
2022-12-18T21:39:32.834Z,101412.79
2022-12-18T21:42:19.556Z,101410.70
2022-12-18T21:44:49.232Z,101412.08
2022-12-18T21:47:22.543Z,101411.13
2022-12-18T21:49:52.940Z,101410.71
2022-12-18T21:52:31.249Z,101412.06
2022-12-18T21:55:08.581Z,101407.63
2022-12-18T21:57:39.475Z,101404.73
2022-12-18T22:00:18.955Z,101399.94
2022-12-18T22:03:04.904Z,101401.88
2022-12-18T22:05:37.587Z,101400.95
2022-12-18T22:08:07.053Z,101398.38
2022-12-18T22:10:36.355Z,101396.96
2022-12-18T22:13:06.336Z,101402.02
2022-12-18T22:15:34.600Z,101401.77
2022-12-18T22:18:03.038Z,101396.48
2022-12-18T22:20:31.319Z,101399.63
2022-12-18T22:23:02.872Z,101398.89
2022-12-18T22:25:35.212Z,101401.22
2022-12-18T22:28:25.692Z,101390.98
2022-12-18T22:30:59.133Z,101389.96
2022-12-18T22:33:28.566Z,101387.48
2022-12-18T22:35:56.904Z,101384.44
2022-12-18T22:38:25.292Z,101376.75
2022-12-18T22:40:54.743Z,101372.14
2022-12-18T22:43:23.175Z,101376.70
2022-12-18T22:45:51.300Z,101371.92
2022-12-18T22:48:19.593Z,101366.65
2022-12-18T22:50:47.748Z,101358.86
2022-12-18T22:53:17.274Z,101364.25
2022-12-18T22:55:45.388Z,101370.09
2022-12-18T22:58:13.750Z,101370.09
2022-12-18T23:00:41.848Z,101362.20
2022-12-18T23:03:10.375Z,101366.11
2022-12-18T23:05:38.629Z,101367.45
2022-12-18T23:08:06.720Z,101364.45
2022-12-18T23:10:38.541Z,101356.83
2022-12-18T23:13:06.943Z,101358.50
2022-12-18T23:15:35.324Z,101362.53
2022-12-18T23:18:03.817Z,101364.65
2022-12-18T23:20:32.086Z,101362.41
2022-12-18T23:23:00.193Z,101361.80
2022-12-18T23:25:28.298Z,101360.29
2022-12-18T23:27:56.514Z,101359.86
2022-12-18T23:30:24.756Z,101360.88
2022-12-18T23:32:52.887Z,101361.98
2022-12-18T23:35:21.347Z,101354.67
2022-12-18T23:37:59.331Z,101356.11
2022-12-18T23:40:29.623Z,101359.71
2022-12-18T23:42:59.287Z,101365.89
2022-12-18T23:45:28.073Z,101368.27
2022-12-18T23:47:56.372Z,101366.89
2022-12-18T23:50:28.866Z,101356.92
2022-12-18T23:53:04.901Z,101354.67
2022-12-18T23:55:39.818Z,101354.38
2022-12-18T23:58:15.813Z,101352.15
